Salem, Virginia
Current Conditions -  °F | °C
As of 10:54 PM on Tuesday 27 Jan 2015 (Local Time) from KROA Reporting Station
Few Clouds Few Clouds  
Wind Chill: 12°   Ceiling: Unl
Heat Index: 23°   Visibility: 10mi
Dew Point: 10°   Wind: 10mph
Humidity: 58%   Direction: 300°WNW
Pressure: 30.04"   Gusts: 20mph
Location:  37.29°N, 80.05°W
Report Text: KROA 280354Z 30009G17KT 10SM FEW038 M05/M12 A3004 RMK AO2 SLP183 T10501122
Loading
Personal Weather Stations






























Interactive Weather Map New forecast layout! Learn more

10-Day Weather Forecast

Advertisements
Track Severe Weather on mobile